Randolph, NJ (07869)

10:54 PM EST on January 29, 2015 (GMT -0500)
Mount Freedom, NJ | Change Station
CLOSE
Current Station
Personal Weather Station
Location: Randolph, NJ
Elevation: 1007 ft
Nearby Weather Stations
Active Advisory: Special Statement Active Notice: Public Information Statement

Elev 1007 ft 40.83 °N, 74.58 °W | Updated 15 seconds ago

Snow
Snow
23.9 °F
Feels Like 24 °F
N
2.7
Wind Variable Wind from South
Gusts 4.2 mph

Today
High -- | Low -- °F
--% Chance of Precip.
Yesterday
High -- | Low -- °F
Precip. -- in
7:11 AM 5:11 PM
Waxing Gibbous, 79% visible
Pressure 30.02 in
Visibility 1.8 miles
Clouds Scattered Clouds 1200 ft
Mostly Cloudy 1800 ft
Overcast 2700 ft
Windchill 24 °F
Dew Point 22 °F
Humidity 91%
Rainfall 0.00 in
Snow Depth Not available.
UV 0 out of 12
Pollen .10 out of 12
Air Quality Not available.
Flu Activity Not available.
METAR KMMU 300335Z AUTO 00000KT 1 3/4SM -SN SCT012 BKN018 OVC027 00/M05 A3002 RMK AO2

More Conditions Fewer Conditions

Pressure 30.02 in
Visibility 1.8 miles
Clouds Scattered Clouds 1200 ft
Mostly Cloudy 1800 ft
Overcast 2700 ft
Windchill 24 °F
Dew Point 22 °F
Humidity 91%
Rainfall 0.00 in
Snow Depth Not available.
UV 0 out of 12
Pollen .10 out of 12
Air Quality Not available.
Flu Activity Not available.
METAR KMMU 300335Z AUTO 00000KT 1 3/4SM -SN SCT012 BKN018 OVC027 00/M05 A3002 RMK AO2

More Conditions Fewer Conditions

Nowcast | as of 10:52 PM EST on January 29, 2015

Areas of snow may lower visibilities and create a few areas of slick travel overnight. The most snow will occur across northeast Pennsylvania and the northern half of New Jersey. Use caution when traveling overnight.

×

10-Day Weather Forecast

Almanac

Astronomy

Jan. 29, 2015 Rise Set
Actual Time
Civil Twilight
Nautical Twilight
Astronomical Twilight
Moon
Length of Visible Light
Length of Day
Tomorrow will be .
, % of the Moon is Illuminated

Today's Extremes

State Highs State Lows

Community

WunderPhotos

Upload Photos

1,791,702 photos uploaded!

WunderBlogs® & News

Nearby

Air Quality

  Air Quality AQ Index Pollutant
Not available.

Snow Depth

Station Depth Elevation

Earthquake Activity

City Distance Mag. Time & Date
Minimum magnitude displayed is 2.5.

Coastal Water Temperatures

Place Temperature

Nearby Weather Stations